sensor_id;sensor_type;location;lat;lon;timestamp;pressure;altitude;pressure_sealevel;temperature;humidity
77192;BME280;66172;48.526;8.078;2023-01-28T00:01:15;100186.88;;;1.52;73.03
77192;BME280;66172;48.526;8.078;2023-01-28T00:03:42;100184.19;;;1.52;72.52
77192;BME280;66172;48.526;8.078;2023-01-28T00:06:10;100182.84;;;1.49;72.89
77192;BME280;66172;48.526;8.078;2023-01-28T00:08:36;100177.72;;;1.48;73.21
77192;BME280;66172;48.526;8.078;2023-01-28T00:11:04;100173.75;;;1.50;72.84
77192;BME280;66172;48.526;8.078;2023-01-28T00:13:31;100156.28;;;1.48;73.00
77192;BME280;66172;48.526;8.078;2023-01-28T00:15:59;100161.94;;;1.46;72.63
77192;BME280;66172;48.526;8.078;2023-01-28T00:18:27;100161.38;;;1.44;72.74
77192;BME280;66172;48.526;8.078;2023-01-28T00:21:09;100163.22;;;1.39;72.91
77192;BME280;66172;48.526;8.078;2023-01-28T00:23:37;100158.63;;;1.34;72.48
77192;BME280;66172;48.526;8.078;2023-01-28T00:26:05;100155.44;;;1.37;73.28
77192;BME280;66172;48.526;8.078;2023-01-28T00:28:32;100166.97;;;1.38;72.88
77192;BME280;66172;48.526;8.078;2023-01-28T00:30:58;100161.31;;;1.34;73.05
77192;BME280;66172;48.526;8.078;2023-01-28T00:33:23;100163.47;;;1.37;72.35
77192;BME280;66172;48.526;8.078;2023-01-28T00:35:59;100158.69;;;1.39;71.77
77192;BME280;66172;48.526;8.078;2023-01-28T00:38:26;100159.72;;;1.33;73.29
77192;BME280;66172;48.526;8.078;2023-01-28T00:40:53;100162.38;;;1.28;72.13
77192;BME280;66172;48.526;8.078;2023-01-28T00:43:19;100160.72;;;1.22;72.69
77192;BME280;66172;48.526;8.078;2023-01-28T00:45:45;100157.19;;;1.17;72.79
77192;BME280;66172;48.526;8.078;2023-01-28T00:48:11;100150.25;;;1.16;72.18
77192;BME280;66172;48.526;8.078;2023-01-28T00:50:37;100158.25;;;1.11;73.30
77192;BME280;66172;48.526;8.078;2023-01-28T00:53:04;100163.06;;;1.09;72.41
77192;BME280;66172;48.526;8.078;2023-01-28T00:55:29;100168.38;;;1.04;72.60
77192;BME280;66172;48.526;8.078;2023-01-28T00:57:55;100169.72;;;1.01;72.73
77192;BME280;66172;48.526;8.078;2023-01-28T01:00:21;100167.03;;;1.01;73.00
77192;BME280;66172;48.526;8.078;2023-01-28T01:02:50;100163.28;;;1.02;73.30
77192;BME280;66172;48.526;8.078;2023-01-28T01:05:17;100172.69;;;1.05;72.91
77192;BME280;66172;48.526;8.078;2023-01-28T01:07:42;100175.06;;;1.01;73.11
77192;BME280;66172;48.526;8.078;2023-01-28T01:10:11;100172.09;;;1.02;73.11
77192;BME280;66172;48.526;8.078;2023-01-28T01:12:38;100177.16;;;0.99;73.71
77192;BME280;66172;48.526;8.078;2023-01-28T01:15:05;100170.47;;;0.96;73.48
77192;BME280;66172;48.526;8.078;2023-01-28T01:17:39;100181.47;;;1.00;73.97
77192;BME280;66172;48.526;8.078;2023-01-28T01:20:08;100181.25;;;1.07;73.09
77192;BME280;66172;48.526;8.078;2023-01-28T01:22:36;100181.53;;;1.10;73.63
77192;BME280;66172;48.526;8.078;2023-01-28T01:25:04;100182.59;;;1.09;72.63
77192;BME280;66172;48.526;8.078;2023-01-28T01:27:31;100176.19;;;1.10;72.91
77192;BME280;66172;48.526;8.078;2023-01-28T01:29:57;100177.28;;;1.14;73.61
77192;BME280;66172;48.526;8.078;2023-01-28T01:32:32;100170.88;;;1.15;73.62
77192;BME280;66172;48.526;8.078;2023-01-28T01:35:03;100172.22;;;1.18;72.60
77192;BME280;66172;48.526;8.078;2023-01-28T01:37:31;100174.66;;;1.19;73.53
77192;BME280;66172;48.526;8.078;2023-01-28T01:39:57;100181.59;;;1.20;72.93
77192;BME280;66172;48.526;8.078;2023-01-28T01:42:23;100178.66;;;1.22;73.77
77192;BME280;66172;48.526;8.078;2023-01-28T01:45:04;100178.41;;;1.23;73.08
77192;BME280;66172;48.526;8.078;2023-01-28T01:50:08;100172.78;;;1.25;73.11
77192;BME280;66172;48.526;8.078;2023-01-28T01:52:37;100178.97;;;1.25;73.28
77192;BME280;66172;48.526;8.078;2023-01-28T01:55:08;100181.06;;;1.23;73.10
77192;BME280;66172;48.526;8.078;2023-01-28T01:57:37;100184.31;;;1.25;72.80
77192;BME280;66172;48.526;8.078;2023-01-28T02:00:07;100184.03;;;1.22;73.19
77192;BME280;66172;48.526;8.078;2023-01-28T02:02:39;100178.66;;;1.22;72.64
77192;BME280;66172;48.526;8.078;2023-01-28T02:05:09;100180.00;;;1.24;73.07
77192;BME280;66172;48.526;8.078;2023-01-28T02:07:36;100182.97;;;1.23;72.93
77192;BME280;66172;48.526;8.078;2023-01-28T02:10:03;100168.25;;;1.25;72.29
77192;BME280;66172;48.526;8.078;2023-01-28T02:12:33;100162.88;;;1.25;72.31
77192;BME280;66172;48.526;8.078;2023-01-28T02:15:06;100163.41;;;1.22;73.02
77192;BME280;66172;48.526;8.078;2023-01-28T02:17:33;100169.00;;;1.21;72.80
77192;BME280;66172;48.526;8.078;2023-01-28T02:20:04;100165.53;;;1.20;72.65
77192;BME280;66172;48.526;8.078;2023-01-28T02:28:16;100177.16;;;1.41;71.58
77192;BME280;66172;48.526;8.078;2023-01-28T02:31:00;100170.44;;;1.33;71.96
77192;BME280;66172;48.526;8.078;2023-01-28T02:33:41;100181.13;;;1.28;70.97
77192;BME280;66172;48.526;8.078;2023-01-28T02:36:45;100179.81;;;1.36;70.84
77192;BME280;66172;48.526;8.078;2023-01-28T02:39:21;100180.91;;;1.40;70.96
77192;BME280;66172;48.526;8.078;2023-01-28T02:41:55;100181.16;;;1.38;70.45
77192;BME280;66172;48.526;8.078;2023-01-28T02:44:22;100194.03;;;1.41;70.98
77192;BME280;66172;48.526;8.078;2023-01-28T02:46:51;100185.22;;;1.46;70.57
77192;BME280;66172;48.526;8.078;2023-01-28T02:49:41;100193.03;;;1.47;70.99
77192;BME280;66172;48.526;8.078;2023-01-28T02:54:44;100183.94;;;1.54;69.99
77192;BME280;66172;48.526;8.078;2023-01-28T02:57:27;100180.19;;;1.55;70.15
77192;BME280;66172;48.526;8.078;2023-01-28T03:00:16;100176.72;;;1.54;70.12
77192;BME280;66172;48.526;8.078;2023-01-28T03:02:50;100175.38;;;1.57;69.52
77192;BME280;66172;48.526;8.078;2023-01-28T03:05:26;100173.22;;;1.54;69.33
77192;BME280;66172;48.526;8.078;2023-01-28T03:07:54;100193.03;;;1.52;69.83
77192;BME280;66172;48.526;8.078;2023-01-28T03:10:22;100179.16;;;1.61;69.96
77192;BME280;66172;48.526;8.078;2023-01-28T03:12:53;100188.00;;;1.61;69.93
77192;BME280;66172;48.526;8.078;2023-01-28T03:15:42;100200.06;;;1.64;69.71
77192;BME280;66172;48.526;8.078;2023-01-28T03:18:37;100193.59;;;1.60;70.23
77192;BME280;66172;48.526;8.078;2023-01-28T03:21:29;100199.25;;;1.58;70.52
77192;BME280;66172;48.526;8.078;2023-01-28T03:24:37;100208.63;;;1.61;70.12
77192;BME280;66172;48.526;8.078;2023-01-28T03:27:28;100199.53;;;1.62;70.01
77192;BME280;66172;48.526;8.078;2023-01-28T03:30:27;100202.75;;;1.64;69.63
77192;BME280;66172;48.526;8.078;2023-01-28T03:33:14;100209.16;;;1.63;69.75
77192;BME280;66172;48.526;8.078;2023-01-28T03:36:00;100203.00;;;1.62;70.28
77192;BME280;66172;48.526;8.078;2023-01-28T03:38:45;100212.41;;;1.65;70.55
77192;BME280;66172;48.526;8.078;2023-01-28T03:41:20;100206.75;;;1.61;70.48
77192;BME280;66172;48.526;8.078;2023-01-28T03:43:47;100209.72;;;1.65;70.95
77192;BME280;66172;48.526;8.078;2023-01-28T03:46:13;100201.41;;;1.66;70.41
77192;BME280;66172;48.526;8.078;2023-01-28T03:48:38;100203.03;;;1.67;70.58
77192;BME280;66172;48.526;8.078;2023-01-28T03:51:05;100211.03;;;1.62;70.79
77192;BME280;66172;48.526;8.078;2023-01-28T03:53:30;100215.34;;;1.63;70.95
77192;BME280;66172;48.526;8.078;2023-01-28T03:55:56;100208.38;;;1.67;70.45
77192;BME280;66172;48.526;8.078;2023-01-28T03:58:23;100211.88;;;1.68;70.24
77192;BME280;66172;48.526;8.078;2023-01-28T04:00:52;100215.38;;;1.68;70.60
77192;BME280;66172;48.526;8.078;2023-01-28T04:03:20;100215.91;;;1.70;70.55
77192;BME280;66172;48.526;8.078;2023-01-28T04:06:00;100215.63;;;1.67;70.77
77192;BME280;66172;48.526;8.078;2023-01-28T04:08:26;100218.28;;;1.67;71.48
77192;BME280;66172;48.526;8.078;2023-01-28T04:10:52;100213.22;;;1.65;71.15
77192;BME280;66172;48.526;8.078;2023-01-28T04:13:19;100216.69;;;1.66;71.14
77192;BME280;66172;48.526;8.078;2023-01-28T04:15:45;100216.72;;;1.71;70.61
77192;BME280;66172;48.526;8.078;2023-01-28T04:18:11;100219.16;;;1.72;71.48
77192;BME280;66172;48.526;8.078;2023-01-28T04:20:37;100222.34;;;1.74;70.92
77192;BME280;66172;48.526;8.078;2023-01-28T04:23:04;100215.09;;;1.70;72.13
77192;BME280;66172;48.526;8.078;2023-01-28T04:25:30;100214.56;;;1.68;71.41
77192;BME280;66172;48.526;8.078;2023-01-28T04:27:56;100221.78;;;1.67;71.84
77192;BME280;66172;48.526;8.078;2023-01-28T04:30:22;100218.84;;;1.69;71.53
77192;BME280;66172;48.526;8.078;2023-01-28T04:32:48;100224.75;;;1.71;71.71
77192;BME280;66172;48.526;8.078;2023-01-28T04:35:16;100221.25;;;1.70;71.83
77192;BME280;66172;48.526;8.078;2023-01-28T04:37:42;100230.59;;;1.63;72.09
77192;BME280;66172;48.526;8.078;2023-01-28T04:40:09;100230.34;;;1.64;72.34
77192;BME280;66172;48.526;8.078;2023-01-28T04:42:35;100230.06;;;1.66;71.97
77192;BME280;66172;48.526;8.078;2023-01-28T04:45:01;100237.88;;;1.67;72.43
77192;BME280;66172;48.526;8.078;2023-01-28T04:47:27;100236.28;;;1.71;72.80
77192;BME280;66172;48.526;8.078;2023-01-28T04:49:53;100246.19;;;1.71;72.45
77192;BME280;66172;48.526;8.078;2023-01-28T04:52:19;100245.13;;;1.72;71.99
77192;BME280;66172;48.526;8.078;2023-01-28T04:54:45;100241.91;;;1.70;72.28
77192;BME280;66172;48.526;8.078;2023-01-28T04:57:11;100236.81;;;1.68;71.78
77192;BME280;66172;48.526;8.078;2023-01-28T04:59:37;100244.56;;;1.70;72.78
77192;BME280;66172;48.526;8.078;2023-01-28T05:02:02;100250.50;;;1.72;72.53
77192;BME280;66172;48.526;8.078;2023-01-28T05:04:28;100253.47;;;1.75;72.89
77192;BME280;66172;48.526;8.078;2023-01-28T05:06:54;100253.47;;;1.75;72.47
77192;BME280;66172;48.526;8.078;2023-01-28T05:09:20;100249.69;;;1.76;72.74
77192;BME280;66172;48.526;8.078;2023-01-28T05:11:46;100250.78;;;1.75;72.31
77192;BME280;66172;48.526;8.078;2023-01-28T05:14:12;100240.88;;;1.76;72.74
77192;BME280;66172;48.526;8.078;2023-01-28T05:16:38;100241.41;;;1.78;72.26
77192;BME280;66172;48.526;8.078;2023-01-28T05:19:04;100244.91;;;1.78;73.23
77192;BME280;66172;48.526;8.078;2023-01-28T05:21:29;100248.41;;;1.79;73.07
77192;BME280;66172;48.526;8.078;2023-01-28T05:23:55;100245.97;;;1.77;73.59
77192;BME280;66172;48.526;8.078;2023-01-28T05:26:21;100247.84;;;1.77;72.39
77192;BME280;66172;48.526;8.078;2023-01-28T05:28:47;100256.41;;;1.74;73.21
77192;BME280;66172;48.526;8.078;2023-01-28T05:31:13;100249.69;;;1.71;73.17
77192;BME280;66172;48.526;8.078;2023-01-28T05:33:39;100244.06;;;1.73;73.39
77192;BME280;66172;48.526;8.078;2023-01-28T05:36:05;100246.19;;;1.71;72.62
77192;BME280;66172;48.526;8.078;2023-01-28T05:38:31;100253.72;;;1.69;73.09
77192;BME280;66172;48.526;8.078;2023-01-28T05:40:57;100257.41;;;1.63;73.39
77192;BME280;66172;48.526;8.078;2023-01-28T05:43:22;100254.25;;;1.71;72.68
77192;BME280;66172;48.526;8.078;2023-01-28T05:45:48;100242.72;;;1.70;73.40
77192;BME280;66172;48.526;8.078;2023-01-28T05:48:14;100256.69;;;1.72;73.74
77192;BME280;66172;48.526;8.078;2023-01-28T05:50:40;100265.47;;;1.68;72.74
77192;BME280;66172;48.526;8.078;2023-01-28T05:53:07;100257.97;;;1.70;73.58
77192;BME280;66172;48.526;8.078;2023-01-28T05:55:34;100264.97;;;1.71;73.29
77192;BME280;66172;48.526;8.078;2023-01-28T05:57:59;100268.19;;;1.73;73.04
77192;BME280;66172;48.526;8.078;2023-01-28T06:00:26;100261.50;;;1.75;73.46
77192;BME280;66172;48.526;8.078;2023-01-28T06:02:52;100261.22;;;1.77;73.84
77192;BME280;66172;48.526;8.078;2023-01-28T06:05:18;100268.22;;;1.78;73.29
77192;BME280;66172;48.526;8.078;2023-01-28T06:07:45;100274.91;;;1.75;73.60
77192;BME280;66172;48.526;8.078;2023-01-28T06:10:11;100278.41;;;1.76;73.38
77192;BME280;66172;48.526;8.078;2023-01-28T06:12:37;100286.94;;;1.73;72.97
77192;BME280;66172;48.526;8.078;2023-01-28T06:15:03;100287.75;;;1.73;73.65
77192;BME280;66172;48.526;8.078;2023-01-28T06:17:29;100289.13;;;1.76;73.73
77192;BME280;66172;48.526;8.078;2023-01-28T06:19:55;100284.34;;;1.88;73.01
77192;BME280;66172;48.526;8.078;2023-01-28T06:22:21;100292.91;;;1.85;72.49
77192;BME280;66172;48.526;8.078;2023-01-28T06:24:47;100300.72;;;1.86;72.37
77192;BME280;66172;48.526;8.078;2023-01-28T06:27:13;100303.91;;;1.83;72.78
77192;BME280;66172;48.526;8.078;2023-01-28T06:29:39;100304.97;;;1.82;72.86
77192;BME280;66172;48.526;8.078;2023-01-28T06:32:05;100310.59;;;1.81;72.92
77192;BME280;66172;48.526;8.078;2023-01-28T06:34:31;100308.97;;;1.80;73.21
77192;BME280;66172;48.526;8.078;2023-01-28T06:36:57;100315.41;;;1.79;73.30
77192;BME280;66172;48.526;8.078;2023-01-28T06:39:23;100317.00;;;1.80;74.21
77192;BME280;66172;48.526;8.078;2023-01-28T06:41:49;100317.53;;;1.77;74.10
77192;BME280;66172;48.526;8.078;2023-01-28T06:44:15;100316.47;;;1.78;74.55
77192;BME280;66172;48.526;8.078;2023-01-28T06:46:41;100319.69;;;1.75;74.91
77192;BME280;66172;48.526;8.078;2023-01-28T06:49:07;100327.19;;;1.78;74.15
77192;BME280;66172;48.526;8.078;2023-01-28T06:51:33;100328.00;;;1.78;74.09
77192;BME280;66172;48.526;8.078;2023-01-28T06:53:59;100328.00;;;1.78;74.85
77192;BME280;66172;48.526;8.078;2023-01-28T06:56:24;100339.53;;;1.79;74.84
77192;BME280;66172;48.526;8.078;2023-01-28T06:58:50;100334.72;;;1.81;75.10
77192;BME280;66172;48.526;8.078;2023-01-28T07:01:16;100325.31;;;1.78;74.64
77192;BME280;66172;48.526;8.078;2023-01-28T07:03:42;100336.59;;;1.80;74.97
77192;BME280;66172;48.526;8.078;2023-01-28T07:06:08;100338.47;;;1.80;74.98
77192;BME280;66172;48.526;8.078;2023-01-28T07:08:34;100333.91;;;1.80;75.82
77192;BME280;66172;48.526;8.078;2023-01-28T07:11:02;100336.28;;;1.77;75.24
77192;BME280;66172;48.526;8.078;2023-01-28T07:13:29;100330.41;;;1.80;75.31
77192;BME280;66172;48.526;8.078;2023-01-28T07:15:55;100337.69;;;1.79;75.43
77192;BME280;66172;48.526;8.078;2023-01-28T07:18:21;100348.13;;;1.81;75.74
77192;BME280;66172;48.526;8.078;2023-01-28T07:20:47;100345.44;;;1.81;76.55
77192;BME280;66172;48.526;8.078;2023-01-28T07:23:13;100348.41;;;1.84;76.44
77192;BME280;66172;48.526;8.078;2023-01-28T07:25:39;100347.91;;;1.87;76.20
77192;BME280;66172;48.526;8.078;2023-01-28T07:28:05;100346.03;;;1.88;76.46
77192;BME280;66172;48.526;8.078;2023-01-28T07:30:31;100356.22;;;1.91;77.12
77192;BME280;66172;48.526;8.078;2023-01-28T07:32:58;100366.13;;;1.90;76.92
77192;BME280;66172;48.526;8.078;2023-01-28T07:35:24;100361.59;;;1.91;77.52
77192;BME280;66172;48.526;8.078;2023-01-28T07:37:52;100366.72;;;1.92;77.27
77192;BME280;66172;48.526;8.078;2023-01-28T07:40:18;100356.78;;;1.93;77.79
77192;BME280;66172;48.526;8.078;2023-01-28T07:42:44;100371.00;;;1.93;77.61
77192;BME280;66172;48.526;8.078;2023-01-28T07:45:10;100372.59;;;1.89;77.22
77192;BME280;66172;48.526;8.078;2023-01-28T07:47:36;100373.88;;;1.82;76.84
77192;BME280;66172;48.526;8.078;2023-01-28T07:50:02;100373.31;;;1.80;76.86
77192;BME280;66172;48.526;8.078;2023-01-28T07:52:28;100376.56;;;1.82;77.47
77192;BME280;66172;48.526;8.078;2023-01-28T07:54:54;100373.91;;;1.87;78.20
77192;BME280;66172;48.526;8.078;2023-01-28T07:57:19;100375.28;;;1.89;78.18
77192;BME280;66172;48.526;8.078;2023-01-28T07:59:48;100379.56;;;1.90;77.89
77192;BME280;66172;48.526;8.078;2023-01-28T08:02:16;100381.97;;;1.92;77.54
77192;BME280;66172;48.526;8.078;2023-01-28T08:04:42;100390.63;;;1.99;77.96
77192;BME280;66172;48.526;8.078;2023-01-28T08:07:08;100380.69;;;1.99;78.25
77192;BME280;66172;48.526;8.078;2023-01-28T08:09:34;100379.13;;;2.04;77.98
77192;BME280;66172;48.526;8.078;2023-01-28T08:12:03;100378.31;;;2.08;77.88
77192;BME280;66172;48.526;8.078;2023-01-28T08:14:29;100391.00;;;2.18;77.46
77192;BME280;66172;48.526;8.078;2023-01-28T08:16:54;100389.63;;;2.15;77.19
77192;BME280;66172;48.526;8.078;2023-01-28T08:19:21;100382.97;;;2.18;78.20
77192;BME280;66172;48.526;8.078;2023-01-28T08:21:47;100391.00;;;2.18;78.50
77192;BME280;66172;48.526;8.078;2023-01-28T08:24:13;100389.91;;;2.19;78.70
77192;BME280;66172;48.526;8.078;2023-01-28T08:26:39;100384.31;;;2.20;79.08
77192;BME280;66172;48.526;8.078;2023-01-28T08:29:05;100389.09;;;2.18;78.70
77192;BME280;66172;48.526;8.078;2023-01-28T08:31:31;100396.66;;;2.21;78.94
77192;BME280;66172;48.526;8.078;2023-01-28T08:33:57;100393.44;;;2.24;78.86
77192;BME280;66172;48.526;8.078;2023-01-28T08:36:22;100395.91;;;2.31;79.27
77192;BME280;66172;48.526;8.078;2023-01-28T08:38:52;100400.97;;;2.27;78.61
77192;BME280;66172;48.526;8.078;2023-01-28T08:41:38;100397.56;;;2.42;78.57
77192;BME280;66172;48.526;8.078;2023-01-28T08:44:04;100407.22;;;2.38;78.50
77192;BME280;66172;48.526;8.078;2023-01-28T08:46:30;100408.00;;;2.38;78.62
77192;BME280;66172;48.526;8.078;2023-01-28T08:48:56;100399.72;;;2.45;78.60
77192;BME280;66172;48.526;8.078;2023-01-28T08:51:22;100397.31;;;2.48;78.84
77192;BME280;66172;48.526;8.078;2023-01-28T08:53:48;100405.09;;;2.50;78.78
77192;BME280;66172;48.526;8.078;2023-01-28T08:56:14;100408.06;;;2.53;78.95
77192;BME280;66172;48.526;8.078;2023-01-28T08:58:41;100408.97;;;2.69;77.91
77192;BME280;66172;48.526;8.078;2023-01-28T09:01:06;100413.25;;;2.75;77.41
77192;BME280;66172;48.526;8.078;2023-01-28T09:03:32;100413.53;;;2.79;78.31
77192;BME280;66172;48.526;8.078;2023-01-28T09:06:00;100411.94;;;2.83;78.33
77192;BME280;66172;48.526;8.078;2023-01-28T09:08:26;100418.44;;;2.92;77.38
77192;BME280;66172;48.526;8.078;2023-01-28T09:10:56;100416.50;;;2.77;78.49
77192;BME280;66172;48.526;8.078;2023-01-28T09:13:23;100410.63;;;2.80;78.47
77192;BME280;66172;48.526;8.078;2023-01-28T09:15:50;100413.56;;;2.89;77.24
77192;BME280;66172;48.526;8.078;2023-01-28T09:18:16;100420.56;;;2.90;77.30
77192;BME280;66172;48.526;8.078;2023-01-28T09:20:42;100423.53;;;2.93;78.05
77192;BME280;66172;48.526;8.078;2023-01-28T09:23:09;100426.47;;;2.87;78.69
77192;BME280;66172;48.526;8.078;2023-01-28T09:25:35;100433.75;;;2.91;77.95
77192;BME280;66172;48.526;8.078;2023-01-28T09:28:01;100428.94;;;2.98;77.43
77192;BME280;66172;48.526;8.078;2023-01-28T09:30:27;100436.47;;;3.01;77.93
77192;BME280;66172;48.526;8.078;2023-01-28T09:32:55;100432.44;;;3.04;78.03
77192;BME280;66172;48.526;8.078;2023-01-28T09:35:23;100432.72;;;3.03;77.56
77192;BME280;66172;48.526;8.078;2023-01-28T09:37:49;100431.09;;;3.07;77.64
77192;BME280;66172;48.526;8.078;2023-01-28T09:40:20;100438.09;;;3.08;77.81
77192;BME280;66172;48.526;8.078;2023-01-28T09:45:36;100443.50;;;3.13;77.03
77192;BME280;66172;48.526;8.078;2023-01-28T09:48:04;100446.44;;;3.11;77.55
77192;BME280;66172;48.526;8.078;2023-01-28T09:50:34;100450.72;;;3.02;76.98
77192;BME280;66172;48.526;8.078;2023-01-28T09:53:20;100445.09;;;3.09;77.29
77192;BME280;66172;48.526;8.078;2023-01-28T09:58:22;100450.75;;;3.12;77.12
77192;BME280;66172;48.526;8.078;2023-01-28T10:06:29;100459.06;;;3.21;75.90
77192;BME280;66172;48.526;8.078;2023-01-28T10:11:56;100442.72;;;3.32;75.40
77192;BME280;66172;48.526;8.078;2023-01-28T10:15:09;100444.88;;;3.35;76.10
77192;BME280;66172;48.526;8.078;2023-01-28T10:17:43;100450.00;;;3.37;75.22
77192;BME280;66172;48.526;8.078;2023-01-28T10:22:43;100431.16;;;3.42;75.15
77192;BME280;66172;48.526;8.078;2023-01-28T10:25:18;100434.41;;;3.49;74.85
77192;BME280;66172;48.526;8.078;2023-01-28T10:27:46;100425.28;;;3.55;74.64
77192;BME280;66172;48.526;8.078;2023-01-28T10:30:18;100422.06;;;3.58;73.86
77192;BME280;66172;48.526;8.078;2023-01-28T10:32:54;100422.84;;;3.64;73.72
77192;BME280;66172;48.526;8.078;2023-01-28T10:35:21;100417.50;;;3.69;73.85
77192;BME280;66172;48.526;8.078;2023-01-28T10:37:48;100410.75;;;3.71;73.55
77192;BME280;66172;48.526;8.078;2023-01-28T10:40:17;100414.25;;;3.72;72.80
77192;BME280;66172;48.526;8.078;2023-01-28T10:42:44;100407.28;;;3.76;72.71
77192;BME280;66172;48.526;8.078;2023-01-28T10:45:29;100420.97;;;3.84;72.93
77192;BME280;66172;48.526;8.078;2023-01-28T10:48:17;100425.56;;;3.89;71.74
77192;BME280;66172;48.526;8.078;2023-01-28T10:50:54;100426.34;;;3.89;70.95
77192;BME280;66172;48.526;8.078;2023-01-28T10:56:04;100422.56;;;3.95;71.19
77192;BME280;66172;48.526;8.078;2023-01-28T10:58:35;100431.22;;;3.97;71.48
77192;BME280;66172;48.526;8.078;2023-01-28T11:01:04;100428.50;;;4.02;71.82
77192;BME280;66172;48.526;8.078;2023-01-28T11:03:31;100424.47;;;4.00;72.42
77192;BME280;66172;48.526;8.078;2023-01-28T11:06:00;100429.31;;;4.03;72.73
77192;BME280;66172;48.526;8.078;2023-01-28T11:08:28;100427.69;;;4.02;73.28
77192;BME280;66172;48.526;8.078;2023-01-28T11:10:55;100431.72;;;3.94;73.45
77192;BME280;66172;48.526;8.078;2023-01-28T11:13:24;100426.88;;;3.91;73.72
77192;BME280;66172;48.526;8.078;2023-01-28T11:15:53;100434.69;;;3.83;73.56
77192;BME280;66172;48.526;8.078;2023-01-28T11:18:34;100432.28;;;3.71;73.54
77192;BME280;66172;48.526;8.078;2023-01-28T11:21:05;100426.63;;;3.83;73.23
77192;BME280;66172;48.526;8.078;2023-01-28T11:23:34;100422.34;;;3.87;73.38
77192;BME280;66172;48.526;8.078;2023-01-28T11:26:07;100424.72;;;4.03;72.61
77192;BME280;66172;48.526;8.078;2023-01-28T11:28:34;100420.69;;;4.06;72.46
77192;BME280;66172;48.526;8.078;2023-01-28T11:31:04;100426.34;;;3.94;73.79
77192;BME280;66172;48.526;8.078;2023-01-28T11:33:40;100430.13;;;4.03;73.37
77192;BME280;66172;48.526;8.078;2023-01-28T11:36:31;100412.31;;;4.13;72.43
77192;BME280;66172;48.526;8.078;2023-01-28T11:39:00;100416.63;;;4.19;72.27
77192;BME280;66172;48.526;8.078;2023-01-28T11:41:31;100424.44;;;4.10;72.10
77192;BME280;66172;48.526;8.078;2023-01-28T11:43:59;100424.19;;;4.12;71.85
77192;BME280;66172;48.526;8.078;2023-01-28T11:49:18;100423.66;;;4.05;71.56
77192;BME280;66172;48.526;8.078;2023-01-28T11:51:54;100420.94;;;4.10;72.01
77192;BME280;66172;48.526;8.078;2023-01-28T12:02:00;100417.72;;;4.08;71.67
77192;BME280;66172;48.526;8.078;2023-01-28T12:07:44;100408.53;;;4.19;71.73
77192;BME280;66172;48.526;8.078;2023-01-28T12:13:32;100411.22;;;4.19;71.07
77192;BME280;66172;48.526;8.078;2023-01-28T12:18:57;100420.13;;;4.24;71.36
77192;BME280;66172;48.526;8.078;2023-01-28T12:21:47;100426.31;;;4.25;70.68
77192;BME280;66172;48.526;8.078;2023-01-28T12:24:34;100429.81;;;4.20;70.84
77192;BME280;66172;48.526;8.078;2023-01-28T12:27:25;100421.47;;;4.22;70.26
77192;BME280;66172;48.526;8.078;2023-01-28T12:37:55;100415.28;;;4.21;67.41
77192;BME280;66172;48.526;8.078;2023-01-28T12:43:18;100419.31;;;4.09;67.81
77192;BME280;66172;48.526;8.078;2023-01-28T12:45:50;100419.59;;;4.02;67.90
77192;BME280;66172;48.526;8.078;2023-01-28T12:48:40;100419.06;;;4.05;68.50
77192;BME280;66172;48.526;8.078;2023-01-28T12:51:14;100419.91;;;4.00;67.14
77192;BME280;66172;48.526;8.078;2023-01-28T12:53:46;100416.66;;;4.03;68.00
77192;BME280;66172;48.526;8.078;2023-01-28T12:58:52;100411.53;;;4.07;68.44
77192;BME280;66172;48.526;8.078;2023-01-28T13:01:36;100404.53;;;4.11;67.97
77192;BME280;66172;48.526;8.078;2023-01-28T13:04:12;100404.50;;;4.16;68.01
77192;BME280;66172;48.526;8.078;2023-01-28T13:06:51;100402.13;;;4.15;67.55
77192;BME280;66172;48.526;8.078;2023-01-28T13:09:21;100401.84;;;4.11;68.05
77192;BME280;66172;48.526;8.078;2023-01-28T13:11:51;100409.38;;;4.14;67.70
77192;BME280;66172;48.526;8.078;2023-01-28T13:14:27;100422.28;;;4.12;68.08
77192;BME280;66172;48.526;8.078;2023-01-28T13:16:53;100404.00;;;4.14;68.38
77192;BME280;66172;48.526;8.078;2023-01-28T13:21:45;100417.19;;;4.06;67.99
77192;BME280;66172;48.526;8.078;2023-01-28T13:26:46;100418.28;;;4.05;68.11
77192;BME280;66172;48.526;8.078;2023-01-28T13:31:54;100417.19;;;3.95;68.80
77192;BME280;66172;48.526;8.078;2023-01-28T13:34:38;100417.47;;;3.99;68.56
77192;BME280;66172;48.526;8.078;2023-01-28T13:37:21;100421.50;;;3.91;68.96
77192;BME280;66172;48.526;8.078;2023-01-28T13:39:51;100422.06;;;3.93;67.86
77192;BME280;66172;48.526;8.078;2023-01-28T13:44:47;100425.28;;;3.80;68.92
77192;BME280;66172;48.526;8.078;2023-01-28T13:47:30;100427.72;;;3.72;69.20
77192;BME280;66172;48.526;8.078;2023-01-28T13:50:01;100429.59;;;3.71;69.59
77192;BME280;66172;48.526;8.078;2023-01-28T13:52:30;100427.97;;;3.75;70.05
77192;BME280;66172;48.526;8.078;2023-01-28T13:55:13;100424.19;;;3.81;69.43
77192;BME280;66172;48.526;8.078;2023-01-28T13:58:08;100422.31;;;3.92;69.15
77192;BME280;66172;48.526;8.078;2023-01-28T14:01:27;100431.47;;;3.96;68.88
77192;BME280;66172;48.526;8.078;2023-01-28T14:19:56;100447.88;;;3.64;72.23
77192;BME280;66172;48.526;8.078;2023-01-28T14:22:22;100448.13;;;3.63;72.35
77192;BME280;66172;48.526;8.078;2023-01-28T14:24:49;100451.34;;;3.70;72.28
77192;BME280;66172;48.526;8.078;2023-01-28T14:27:34;100461.03;;;3.56;71.80
77192;BME280;66172;48.526;8.078;2023-01-28T14:32:44;100463.19;;;3.59;71.57
77192;BME280;66172;48.526;8.078;2023-01-28T14:35:18;100470.16;;;3.49;71.86
77192;BME280;66172;48.526;8.078;2023-01-28T14:37:44;100474.47;;;3.50;72.16
77192;BME280;66172;48.526;8.078;2023-01-28T14:40:13;100472.31;;;3.52;71.56
77192;BME280;66172;48.526;8.078;2023-01-28T14:42:41;100475.81;;;3.48;71.65
77192;BME280;66172;48.526;8.078;2023-01-28T14:48:27;100480.66;;;3.41;72.52
77192;BME280;66172;48.526;8.078;2023-01-28T14:56:27;100490.06;;;3.43;72.41